createdAt,value
2018-09-09T00:01:10.319Z,73.78
2018-09-09T00:03:39.299Z,72.79
2018-09-09T00:06:08.302Z,72.69
2018-09-09T00:08:37.305Z,73.17
2018-09-09T00:11:06.294Z,72.55
2018-09-09T00:13:35.563Z,71.73
2018-09-09T00:16:04.557Z,67.59
2018-09-09T00:18:33.573Z,66.32
2018-09-09T00:21:02.554Z,64.46
2018-09-09T00:23:31.608Z,64.54
2018-09-09T00:26:00.690Z,64.86
2018-09-09T00:28:29.711Z,65.70
2018-09-09T00:30:58.784Z,66.35
2018-09-09T00:33:27.795Z,66.79
2018-09-09T00:35:56.811Z,68.26
2018-09-09T00:38:25.839Z,68.82
2018-09-09T00:40:54.854Z,70.24
2018-09-09T00:43:23.943Z,70.39
2018-09-09T00:45:53.154Z,71.38
2018-09-09T00:48:22.167Z,71.61
2018-09-09T00:51:55.219Z,72.25
2018-09-09T00:54:24.235Z,73.75
2018-09-09T00:56:53.294Z,74.46
2018-09-09T00:59:22.310Z,74.09
2018-09-09T01:01:51.343Z,75.03
2018-09-09T01:04:20.358Z,74.76
2018-09-09T01:06:49.372Z,74.42
2018-09-09T01:09:18.411Z,72.41
2018-09-09T01:11:47.418Z,73.67
2018-09-09T01:14:16.742Z,73.47
2018-09-09T01:16:45.833Z,74.05
2018-09-09T01:19:14.855Z,74.89
2018-09-09T01:21:43.879Z,75.15
2018-09-09T01:24:12.891Z,75.01
2018-09-09T01:26:41.922Z,75.26
2018-09-09T01:29:10.931Z,74.86
2018-09-09T01:31:40.298Z,74.36
2018-09-09T01:34:09.403Z,74.28
2018-09-09T01:36:38.403Z,73.81
2018-09-09T01:39:08.476Z,74.41
2018-09-09T01:41:37.687Z,75.03
2018-09-09T01:44:06.797Z,75.27
2018-09-09T01:46:35.797Z,75.81
2018-09-09T01:49:04.796Z,75.92
2018-09-09T01:51:33.838Z,76.65
2018-09-09T01:54:03.783Z,76.92
2018-09-09T01:56:32.883Z,76.93
2018-09-09T01:59:01.888Z,77.27
2018-09-09T02:01:30.891Z,78.21
2018-09-09T02:03:59.931Z,77.76
2018-09-09T02:06:28.942Z,78.02
2018-09-09T02:08:57.970Z,78.91
2018-09-09T02:11:26.975Z,78.66
2018-09-09T02:13:56.014Z,79.24
2018-09-09T02:16:25.067Z,78.36
2018-09-09T02:18:54.075Z,78.68
2018-09-09T02:21:23.106Z,78.80
2018-09-09T02:23:52.105Z,77.99
2018-09-09T02:26:21.155Z,78.33
2018-09-09T02:28:50.172Z,78.51
2018-09-09T02:31:19.214Z,78.02
2018-09-09T02:33:48.244Z,77.68
2018-09-09T02:36:17.270Z,77.59
2018-09-09T02:38:46.370Z,77.47
2018-09-09T02:41:15.379Z,77.52
2018-09-09T02:43:44.589Z,77.87
2018-09-09T02:46:13.507Z,78.17
2018-09-09T02:48:42.516Z,78.69
2018-09-09T02:51:11.595Z,78.76
2018-09-09T02:53:40.710Z,78.87
2018-09-09T02:56:09.712Z,78.57
2018-09-09T02:58:38.739Z,79.20
2018-09-09T03:01:08.035Z,79.12
2018-09-09T03:03:37.380Z,78.93
2018-09-09T03:06:06.498Z,78.96
2018-09-09T03:08:35.514Z,78.74
2018-09-09T03:11:09.871Z,78.84
2018-09-09T03:13:39.075Z,79.32
2018-09-09T03:16:08.150Z,79.70
2018-09-09T03:18:37.166Z,79.88
2018-09-09T03:21:06.230Z,80.17
2018-09-09T03:23:35.463Z,80.52
2018-09-09T03:26:04.468Z,81.07
2018-09-09T03:28:33.858Z,80.74
2018-09-09T03:31:02.774Z,81.21
2018-09-09T03:33:31.771Z,81.27
2018-09-09T03:36:00.799Z,81.43
2018-09-09T03:38:29.799Z,80.91
2018-09-09T03:40:58.838Z,81.55
2018-09-09T03:43:27.906Z,81.61
2018-09-09T03:45:56.923Z,81.40
2018-09-09T03:48:26.042Z,81.40
2018-09-09T03:50:55.048Z,81.02
2018-09-09T03:53:24.067Z,80.83
2018-09-09T03:55:53.071Z,81.50
2018-09-09T03:58:22.465Z,80.78
2018-09-09T04:00:51.496Z,80.82
2018-09-09T04:03:20.515Z,80.69
2018-09-09T04:05:49.537Z,80.99
2018-09-09T04:08:18.539Z,81.32
2018-09-09T04:10:47.575Z,81.47
2018-09-09T04:13:16.582Z,81.46
2018-09-09T04:15:45.611Z,81.04
2018-09-09T04:18:14.639Z,80.70
2018-09-09T04:20:43.660Z,80.57
2018-09-09T04:23:12.731Z,81.13
2018-09-09T04:25:41.950Z,81.27
2018-09-09T04:28:10.987Z,81.63
2018-09-09T04:30:40.104Z,82.02
2018-09-09T04:33:09.111Z,82.13
2018-09-09T04:35:38.135Z,82.05
2018-09-09T04:38:07.287Z,81.72
2018-09-09T04:40:36.400Z,81.74
2018-09-09T04:43:05.403Z,81.45
2018-09-09T04:45:34.431Z,81.64
2018-09-09T04:48:03.431Z,81.71
2018-09-09T04:50:32.510Z,81.62
2018-09-09T04:53:01.604Z,81.43
2018-09-09T04:55:30.660Z,81.92
2018-09-09T04:57:59.683Z,81.33
2018-09-09T05:00:28.739Z,81.80
2018-09-09T05:02:57.784Z,82.41
2018-09-09T05:05:26.835Z,81.89
2018-09-09T05:07:55.860Z,82.04
2018-09-09T05:10:24.884Z,82.26
2018-09-09T05:12:53.967Z,81.92
2018-09-09T05:15:23.056Z,81.52
2018-09-09T05:17:52.091Z,81.48
2018-09-09T05:20:21.091Z,81.50
2018-09-09T05:22:50.203Z,81.46
2018-09-09T05:25:19.199Z,81.33
2018-09-09T05:27:48.228Z,81.15
2018-09-09T05:30:17.239Z,81.77
2018-09-09T05:32:46.287Z,81.12
2018-09-09T05:35:15.308Z,80.77
2018-09-09T05:37:44.351Z,79.56
2018-09-09T05:40:13.378Z,79.51
2018-09-09T05:42:42.375Z,79.37
2018-09-09T05:45:11.428Z,79.36
2018-09-09T05:47:40.417Z,79.10
2018-09-09T05:50:09.431Z,78.00
2018-09-09T05:52:38.456Z,78.00
2018-09-09T05:55:07.487Z,78.19
2018-09-09T05:57:36.618Z,78.24
2018-09-09T06:00:05.616Z,77.38
2018-09-09T06:02:34.695Z,77.85
2018-09-09T06:05:03.727Z,77.51
2018-09-09T06:07:32.739Z,77.39
2018-09-09T06:10:01.787Z,78.04
2018-09-09T06:12:30.795Z,78.51
2018-09-09T06:14:59.851Z,78.72
2018-09-09T06:17:28.899Z,78.89
2018-09-09T06:19:57.909Z,78.96
2018-09-09T06:22:27.343Z,79.40
2018-09-09T06:24:56.827Z,79.74
2018-09-09T06:27:26.119Z,79.80
2018-09-09T06:29:55.188Z,80.08
2018-09-09T06:32:24.375Z,79.30
2018-09-09T06:34:53.392Z,78.12
2018-09-09T06:37:22.479Z,76.61
2018-09-09T06:39:51.521Z,76.81
2018-09-09T06:42:20.538Z,76.20
2018-09-09T06:44:49.548Z,75.52
2018-09-09T06:47:18.578Z,75.31
2018-09-09T06:49:47.597Z,75.04
2018-09-09T06:52:16.931Z,73.10
2018-09-09T06:54:46.012Z,71.54
2018-09-09T06:57:18.062Z,70.25
2018-09-09T06:59:47.202Z,69.36
2018-09-09T07:02:16.272Z,69.24
2018-09-09T07:04:45.266Z,68.36
2018-09-09T07:07:14.293Z,68.71
2018-09-09T07:09:43.372Z,68.11
2018-09-09T07:12:12.378Z,68.80
2018-09-09T07:14:41.446Z,68.24
2018-09-09T07:17:10.788Z,69.31
2018-09-09T07:19:39.723Z,69.07
2018-09-09T07:22:08.894Z,67.36
2018-09-09T07:24:37.935Z,67.50
2018-09-09T07:27:07.171Z,67.70
2018-09-09T07:29:36.486Z,66.60
2018-09-09T07:32:05.479Z,64.67
2018-09-09T07:34:34.492Z,64.97
2018-09-09T07:37:03.553Z,63.97
2018-09-09T07:39:32.563Z,64.81
2018-09-09T07:42:01.851Z,64.73
2018-09-09T07:44:30.856Z,62.70
2018-09-09T07:46:59.864Z,64.12
2018-09-09T07:49:28.889Z,63.97
2018-09-09T07:51:57.924Z,63.47
2018-09-09T07:54:26.898Z,62.53
2018-09-09T07:56:55.918Z,62.92
2018-09-09T07:59:25.020Z,63.19
2018-09-09T08:01:54.033Z,62.84
2018-09-09T08:04:23.157Z,61.37
2018-09-09T08:06:52.425Z,61.77
2018-09-09T08:09:21.627Z,60.08
2018-09-09T08:11:50.634Z,60.82
2018-09-09T08:14:19.684Z,61.75
2018-09-09T08:16:48.740Z,61.63
2018-09-09T08:19:17.890Z,61.38
2018-09-09T08:21:46.987Z,62.44
2018-09-09T08:24:16.021Z,60.63
2018-09-09T08:26:45.045Z,60.78
2018-09-09T08:29:14.075Z,59.44
2018-09-09T08:31:43.103Z,59.78
2018-09-09T08:34:12.139Z,58.51
2018-09-09T08:36:41.150Z,57.52
2018-09-09T08:39:11.498Z,57.36
2018-09-09T08:41:40.820Z,56.77
2018-09-09T08:44:10.691Z,56.34
2018-09-09T08:46:39.887Z,58.09
2018-09-09T08:49:08.919Z,57.84
2018-09-09T08:51:37.939Z,58.52
2018-09-09T08:54:07.048Z,57.48
2018-09-09T08:56:36.058Z,56.57
2018-09-09T08:59:05.224Z,54.71
2018-09-09T09:01:34.252Z,54.75
2018-09-09T09:04:03.371Z,54.68
2018-09-09T09:06:32.379Z,54.63
2018-09-09T09:09:01.379Z,54.29
2018-09-09T09:11:30.399Z,54.19
2018-09-09T09:13:59.506Z,52.88
2018-09-09T09:16:28.623Z,52.57
2018-09-09T09:18:57.844Z,51.89
2018-09-09T09:21:26.923Z,52.74
2018-09-09T09:23:55.938Z,51.51
2018-09-09T09:26:24.946Z,52.74
2018-09-09T09:28:54.068Z,51.86
2018-09-09T09:31:23.079Z,51.32
2018-09-09T09:33:52.115Z,51.23
2018-09-09T09:36:21.123Z,51.33
2018-09-09T09:38:50.159Z,49.54
2018-09-09T09:41:19.184Z,50.57
2018-09-09T09:43:48.388Z,50.86
2018-09-09T09:46:17.412Z,51.07
2018-09-09T09:48:46.540Z,51.41
2018-09-09T09:51:15.563Z,51.55
2018-09-09T09:53:44.574Z,51.95
2018-09-09T09:56:13.606Z,51.54
2018-09-09T09:58:42.667Z,52.63
2018-09-09T10:01:11.671Z,51.11
2018-09-09T10:03:40.756Z,52.42
2018-09-09T10:06:09.703Z,50.75
2018-09-09T10:08:38.707Z,50.10
2018-09-09T10:11:07.818Z,49.61
2018-09-09T10:13:36.855Z,49.77
2018-09-09T10:16:05.862Z,48.14
2018-09-09T10:18:34.880Z,48.78
2018-09-09T10:21:03.944Z,48.36
2018-09-09T10:23:32.967Z,47.72
2018-09-09T10:26:01.986Z,47.11
2018-09-09T10:28:31.003Z,47.90
2018-09-09T10:31:06.777Z,47.58
2018-09-09T10:33:35.807Z,47.02
2018-09-09T10:36:04.839Z,46.80
2018-09-09T10:38:33.840Z,45.18
2018-09-09T10:41:02.877Z,44.97
2018-09-09T10:43:31.915Z,45.96
2018-09-09T10:46:00.957Z,45.39
2018-09-09T10:48:30.188Z,45.61
2018-09-09T10:50:59.208Z,45.78
2018-09-09T10:53:28.225Z,44.95
2018-09-09T10:55:57.259Z,43.98
2018-09-09T10:58:26.265Z,44.03
2018-09-09T11:00:55.286Z,45.06
2018-09-09T11:03:24.300Z,44.39
2018-09-09T11:05:53.333Z,44.78
2018-09-09T11:08:22.332Z,45.12
2018-09-09T11:10:51.347Z,45.33
2018-09-09T11:13:20.352Z,46.09
2018-09-09T11:15:49.479Z,45.28
2018-09-09T11:18:18.495Z,44.31
2018-09-09T11:20:47.526Z,44.59
2018-09-09T11:23:16.650Z,44.49
2018-09-09T11:25:45.739Z,44.80
2018-09-09T11:28:14.747Z,43.57
2018-09-09T11:30:44.108Z,42.17
2018-09-09T11:33:13.323Z,43.81
2018-09-09T11:35:42.336Z,42.70
2018-09-09T11:38:11.363Z,42.34
2018-09-09T11:40:40.431Z,43.18
2018-09-09T11:43:10.898Z,43.30
2018-09-09T11:45:39.947Z,43.13
2018-09-09T11:48:15.291Z,42.88
2018-09-09T11:50:44.310Z,42.66
2018-09-09T11:53:13.476Z,43.40
2018-09-09T11:55:42.419Z,42.43
2018-09-09T11:58:11.472Z,43.57
2018-09-09T12:00:40.487Z,44.58
2018-09-09T12:03:10.548Z,42.44
2018-09-09T12:05:39.560Z,43.31
2018-09-09T12:08:08.603Z,44.82
2018-09-09T12:10:37.614Z,41.59
2018-09-09T12:13:07.847Z,44.24
2018-09-09T12:15:36.864Z,41.81
2018-09-09T12:18:05.886Z,41.97
2018-09-09T12:20:34.902Z,41.27
2018-09-09T12:23:06.991Z,41.79
2018-09-09T12:25:36.008Z,39.99
2018-09-09T12:28:05.081Z,41.73
2018-09-09T12:30:34.092Z,41.76
2018-09-09T12:33:04.646Z,40.80
2018-09-09T12:35:33.660Z,39.04
2018-09-09T12:38:02.683Z,39.63
2018-09-09T12:40:31.716Z,39.29
2018-09-09T12:43:07.155Z,37.68
2018-09-09T12:45:41.483Z,39.47
2018-09-09T12:48:16.020Z,38.26
2018-09-09T12:50:45.040Z,38.87
2018-09-09T12:53:15.499Z,38.42
2018-09-09T12:55:44.511Z,38.18
2018-09-09T12:58:13.668Z,37.64
2018-09-09T13:00:42.672Z,35.77
2018-09-09T13:03:13.095Z,34.70
2018-09-09T13:05:42.193Z,38.63
2018-09-09T13:08:11.227Z,37.81
2018-09-09T13:10:40.269Z,39.41
2018-09-09T13:13:16.687Z,39.56
2018-09-09T13:15:45.937Z,38.61
2018-09-09T13:18:15.143Z,37.27
2018-09-09T13:20:44.615Z,36.04
2018-09-09T13:23:15.352Z,36.59
2018-09-09T13:25:44.351Z,37.22
2018-09-09T13:28:13.401Z,35.53
2018-09-09T13:30:42.530Z,36.71
2018-09-09T13:33:11.549Z,36.83
2018-09-09T13:35:40.560Z,36.72
2018-09-09T13:38:09.568Z,35.52
2018-09-09T13:40:38.583Z,37.40
2018-09-09T13:43:09.234Z,36.85
2018-09-09T13:45:38.347Z,36.08
2018-09-09T13:48:07.455Z,35.66
2018-09-09T13:50:36.415Z,35.56
2018-09-09T13:53:05.767Z,35.74
2018-09-09T13:55:34.780Z,35.80
2018-09-09T13:58:03.799Z,35.93
2018-09-09T14:00:32.828Z,35.12
2018-09-09T14:03:01.890Z,34.92
2018-09-09T14:05:31.140Z,33.85
2018-09-09T14:08:00.163Z,33.93
2018-09-09T14:10:29.200Z,33.14
2018-09-09T14:12:58.514Z,31.80
2018-09-09T14:15:27.716Z,33.48
2018-09-09T14:17:56.771Z,31.40
2018-09-09T14:20:25.807Z,32.17
2018-09-09T14:22:54.907Z,31.90
2018-09-09T14:25:23.919Z,32.48
2018-09-09T14:27:53.132Z,32.74
2018-09-09T14:30:22.183Z,31.65
2018-09-09T14:32:57.543Z,32.12
2018-09-09T14:35:26.563Z,29.53
2018-09-09T14:37:55.615Z,31.17
2018-09-09T14:40:24.667Z,32.36
2018-09-09T14:43:00.224Z,32.59
2018-09-09T14:45:29.628Z,32.19
2018-09-09T14:47:58.640Z,32.11
2018-09-09T14:50:27.747Z,31.77
2018-09-09T14:52:56.844Z,31.26
2018-09-09T14:55:25.885Z,32.12
2018-09-09T14:57:54.951Z,32.66
2018-09-09T15:00:24.030Z,32.19
2018-09-09T15:02:52.954Z,30.87
2018-09-09T15:05:21.975Z,30.64
2018-09-09T15:07:51.016Z,30.78
2018-09-09T15:10:20.047Z,30.89
2018-09-09T15:12:50.815Z,31.64
2018-09-09T15:15:19.819Z,31.42
2018-09-09T15:17:48.847Z,32.88
2018-09-09T15:20:17.863Z,32.96
2018-09-09T15:22:48.059Z,33.42
2018-09-09T15:25:23.679Z,34.65
2018-09-09T15:27:52.744Z,32.86
2018-09-09T15:30:21.884Z,33.11
2018-09-09T15:32:52.337Z,33.71
2018-09-09T15:35:21.398Z,34.54
2018-09-09T15:37:50.435Z,34.08
2018-09-09T15:40:19.457Z,34.27
2018-09-09T15:42:49.844Z,35.18
2018-09-09T15:45:18.883Z,33.57
2018-09-09T15:47:47.902Z,33.98
2018-09-09T15:50:16.912Z,35.39
2018-09-09T15:52:45.939Z,35.63
2018-09-09T15:55:15.009Z,35.41
2018-09-09T15:57:44.007Z,36.28
2018-09-09T16:00:13.038Z,34.87
2018-09-09T16:02:42.145Z,35.27
2018-09-09T16:05:11.200Z,36.58
2018-09-09T16:07:40.232Z,36.20
2018-09-09T16:10:09.271Z,36.68
2018-09-09T16:12:41.350Z,38.63
2018-09-09T16:15:10.343Z,38.32
2018-09-09T16:17:39.342Z,38.53
2018-09-09T16:20:08.439Z,38.33
2018-09-09T16:22:38.684Z,39.23
2018-09-09T16:25:08.060Z,38.04
2018-09-09T16:27:37.307Z,39.57
2018-09-09T16:30:07.509Z,43.13
2018-09-09T16:32:36.523Z,45.00
2018-09-09T16:35:05.540Z,45.81
2018-09-09T16:37:34.799Z,47.61
2018-09-09T16:40:03.834Z,47.72
2018-09-09T16:42:33.220Z,48.67
2018-09-09T16:45:02.244Z,49.55
2018-09-09T16:47:31.257Z,48.40
2018-09-09T16:50:00.306Z,49.74
2018-09-09T16:52:29.331Z,50.60
2018-09-09T16:54:58.358Z,51.21
2018-09-09T16:57:27.411Z,51.98
2018-09-09T16:59:56.451Z,52.48
2018-09-09T17:02:25.448Z,53.08
2018-09-09T17:04:54.464Z,54.36
2018-09-09T17:07:23.575Z,55.17
2018-09-09T17:09:52.620Z,55.46
2018-09-09T17:12:21.628Z,54.21
2018-09-09T17:14:50.640Z,54.80
2018-09-09T17:17:19.720Z,55.07
2018-09-09T17:19:49.706Z,55.24
2018-09-09T17:22:19.021Z,56.82
2018-09-09T17:24:48.415Z,56.48
2018-09-09T17:27:17.626Z,56.89
2018-09-09T17:29:46.644Z,57.49
2018-09-09T17:32:15.664Z,58.43
2018-09-09T17:34:44.672Z,58.63
2018-09-09T17:37:14.055Z,59.23
2018-09-09T17:39:43.344Z,60.27
2018-09-09T17:42:12.372Z,59.97
2018-09-09T17:44:41.840Z,60.94
2018-09-09T17:47:10.852Z,61.95
2018-09-09T17:49:39.915Z,62.17
2018-09-09T17:52:08.940Z,61.69
2018-09-09T17:54:37.992Z,61.84
2018-09-09T17:57:07.015Z,62.60
2018-09-09T17:59:36.072Z,61.42
2018-09-09T18:02:05.079Z,62.81
2018-09-09T18:04:34.131Z,63.15
2018-09-09T18:07:03.160Z,62.87
2018-09-09T18:09:32.215Z,63.15
2018-09-09T18:12:01.339Z,63.47
2018-09-09T18:14:30.367Z,63.81
2018-09-09T18:16:59.403Z,64.45
2018-09-09T18:19:28.695Z,63.21
2018-09-09T18:21:57.723Z,64.70
2018-09-09T18:24:26.792Z,64.52
2018-09-09T18:26:55.803Z,65.47
2018-09-09T18:29:24.849Z,65.25
2018-09-09T18:31:54.074Z,64.19
2018-09-09T18:34:23.114Z,63.87
2018-09-09T18:36:52.179Z,64.58
2018-09-09T18:39:21.192Z,65.19
2018-09-09T18:41:50.263Z,65.11
2018-09-09T18:44:19.319Z,64.10
2018-09-09T18:46:48.332Z,64.17
2018-09-09T18:49:17.505Z,65.54
2018-09-09T18:51:46.595Z,65.01
2018-09-09T18:54:15.620Z,64.29
2018-09-09T18:56:44.638Z,63.64
2018-09-09T18:59:13.658Z,63.10
2018-09-09T19:01:42.691Z,62.42
2018-09-09T19:04:11.731Z,62.05
2018-09-09T19:06:40.752Z,61.47
2018-09-09T19:09:09.763Z,62.25
2018-09-09T19:11:38.783Z,62.56
2018-09-09T19:14:07.882Z,64.25
2018-09-09T19:16:36.824Z,65.01
2018-09-09T19:19:05.843Z,64.15
2018-09-09T19:21:34.967Z,63.74
2018-09-09T19:24:03.979Z,64.01
2018-09-09T19:26:32.997Z,64.70
2018-09-09T19:29:02.006Z,63.95
2018-09-09T19:31:37.706Z,63.91
2018-09-09T19:34:06.768Z,64.03
2018-09-09T19:36:35.880Z,64.35
2018-09-09T19:39:07.503Z,64.99
2018-09-09T19:41:36.559Z,65.47
2018-09-09T19:44:05.744Z,65.18
2018-09-09T19:46:34.883Z,64.60
2018-09-09T19:49:04.488Z,64.74
2018-09-09T19:51:33.584Z,64.84
2018-09-09T19:54:02.777Z,65.76
2018-09-09T19:56:31.779Z,65.65
2018-09-09T19:59:00.831Z,65.01
2018-09-09T20:01:29.858Z,63.72
2018-09-09T20:03:58.880Z,64.75
2018-09-09T20:06:27.946Z,63.90
2018-09-09T20:08:56.943Z,64.04
2018-09-09T20:11:25.951Z,62.21
2018-09-09T20:13:56.535Z,62.76
2018-09-09T20:16:25.543Z,62.03
2018-09-09T20:18:54.579Z,62.32
2018-09-09T20:21:23.574Z,61.72
2018-09-09T20:23:52.639Z,61.89
2018-09-09T20:26:21.743Z,61.79
2018-09-09T20:28:50.743Z,62.63
2018-09-09T20:31:19.776Z,62.99
2018-09-09T20:33:48.788Z,63.86
2018-09-09T20:36:17.819Z,64.44
2018-09-09T20:38:46.859Z,65.11
2018-09-09T20:41:15.868Z,64.74
2018-09-09T20:43:44.894Z,65.78
2018-09-09T20:46:13.937Z,65.65
2018-09-09T20:48:42.979Z,66.10
2018-09-09T20:51:11.979Z,65.91
2018-09-09T20:53:41.031Z,66.27
2018-09-09T20:56:10.032Z,66.83
2018-09-09T20:58:39.047Z,66.28
2018-09-09T21:01:08.049Z,66.70
2018-09-09T21:03:37.129Z,66.69
2018-09-09T21:06:06.176Z,67.44
2018-09-09T21:08:35.215Z,67.73
2018-09-09T21:11:04.243Z,67.86
2018-09-09T21:13:33.279Z,67.45
2018-09-09T21:16:02.299Z,66.12
2018-09-09T21:18:31.319Z,66.67
2018-09-09T21:21:00.355Z,67.08
2018-09-09T21:23:30.735Z,66.57
2018-09-09T21:25:59.811Z,66.32
2018-09-09T21:28:28.823Z,66.58
2018-09-09T21:30:57.921Z,67.53
2018-09-09T21:33:27.015Z,67.41
2018-09-09T21:35:56.024Z,66.28
2018-09-09T21:38:25.059Z,65.45
2018-09-09T21:40:54.135Z,65.00
2018-09-09T21:43:24.788Z,65.28
2018-09-09T21:45:53.806Z,65.35
2018-09-09T21:48:22.842Z,65.83
2018-09-09T21:50:51.861Z,66.31
2018-09-09T21:53:22.054Z,67.00
2018-09-09T21:55:51.223Z,67.60
2018-09-09T21:58:20.263Z,68.34
2018-09-09T22:00:54.606Z,68.57
2018-09-09T22:03:23.639Z,67.34
2018-09-09T22:05:52.699Z,66.35
2018-09-09T22:08:21.784Z,66.11
2018-09-09T22:10:50.799Z,66.52
2018-09-09T22:13:21.651Z,66.54
2018-09-09T22:15:50.835Z,66.52
2018-09-09T22:18:19.847Z,66.68
2018-09-09T22:20:49.118Z,66.99
2018-09-09T22:23:18.129Z,67.80
2018-09-09T22:25:48.873Z,69.08
2018-09-09T22:28:17.878Z,69.86
2018-09-09T22:30:46.902Z,69.97
2018-09-09T22:33:15.919Z,70.44
2018-09-09T22:35:46.548Z,70.41
2018-09-09T22:38:15.599Z,70.73
2018-09-09T22:40:44.719Z,71.34
2018-09-09T22:43:13.787Z,71.74
2018-09-09T22:45:42.823Z,71.55
2018-09-09T22:48:12.359Z,71.50
2018-09-09T22:50:41.382Z,72.51
2018-09-09T22:53:10.400Z,72.33
2018-09-09T22:55:39.427Z,72.58
2018-09-09T22:58:08.457Z,72.34
2018-09-09T23:00:37.526Z,73.01
2018-09-09T23:03:06.928Z,73.57
2018-09-09T23:05:36.074Z,73.75
2018-09-09T23:08:05.021Z,73.39
2018-09-09T23:10:34.040Z,73.36
2018-09-09T23:13:03.107Z,73.75
2018-09-09T23:15:32.182Z,73.66
2018-09-09T23:18:01.179Z,73.82
2018-09-09T23:20:30.209Z,74.15
2018-09-09T23:22:59.215Z,74.45
2018-09-09T23:25:28.655Z,74.21
2018-09-09T23:27:58.422Z,74.52
2018-09-09T23:30:27.457Z,74.68
2018-09-09T23:32:56.467Z,74.38
2018-09-09T23:35:25.483Z,74.26
2018-09-09T23:37:54.503Z,74.26
2018-09-09T23:40:23.519Z,73.48
2018-09-09T23:42:52.539Z,73.27
2018-09-09T23:45:21.551Z,73.04
2018-09-09T23:47:50.567Z,73.12
2018-09-09T23:50:19.601Z,73.42
2018-09-09T23:52:49.731Z,74.23
2018-09-09T23:55:18.744Z,73.36
2018-09-09T23:57:47.755Z,72.64
